Current Observation

FTSO31 AGGG 280510
TAF AGGH 280510Z 2806/2906 34008KT 9999 –SHRA SCT018 OVC100
FM281200 VRB03KT 9999 FEW016 BKN100
INTER 2806/2813 3000 TSRA SCT015 FEW016CB OVC026
T 28 26 24 24 Q 1007 1009 1010 1008=

TAF AGGM 280510Z 2806/2906 34008KT 9999 –SHRA FEW018 SCT027 BKN100
FM281200 VRB03KT 9999 FEW016 SCT100
INTER 2806/2810 5000 TSSH SCT015 FEW016CB BKN026
Q 1008 1010 1011 1009=

TAF AGGN 280510Z 2806/2906 25008KT 9999 –SHRA FEW018 SCT027 BKN100
FM281200 VRB03KT 9999 FEW016 SCT100
INTER 2806/2810 5000 TSSH SCT015 FEW016CB BKN026
Q 1008 1010 1011 1009=
 

Last modified on Friday, 28 April 2017 16:11

Weather Outlook

Support and Docs

Modern Design
Go to top